• Join FlightAware (Why Join?)
  • Login
  • US Flag 
06:28AM EDT


 

Airport Tracker/Info


-or-


 

Live Flight TrackerFlight Track Log ✈ N449ND ✈ 05-Mar-2014 ✈ KTIX - KFPR

Flight Track Log - Related Links

Times and Time Zones

All times are in EST time to prevent confusion due to time zone crossing. See the N449ND flight status page for this flight to view local times or setup timezone preferences in your user account.

Time Position Orientation Groundspeed Altitude Reporting Facility
EST Latitude Longitude Course Direction KTS MPH feet Rate Location/Type
07:23PM 28.5167 -80.7833 90° East 71 82 900  Level Orlando TRACON
07:24PM 28.5000 -80.7833 180° South 89 102 1,600 540 Climbing Orlando TRACON
07:25PM 28.4667 -80.7833 180° South 98 113 2,000 480 Climbing Orlando TRACON
07:26PM 28.4500 -80.7667 139° Southeast 93 107 2,600 480 Climbing Orlando TRACON
07:27PM 28.4167 -80.7667 180° South 95 109 3,000 420 Climbing Orlando TRACON
07:28PM 28.4000 -80.7500 139° Southeast 92 106 3,500 420 Climbing Orlando TRACON
07:29PM 28.3833 -80.7500 180° South 89 102 3,900 240 Climbing Orlando TRACON
07:30PM 28.3500 -80.7333 156° South 98 113 4,100 60 Climbing Orlando TRACON
07:31PM 28.3167 -80.7167 156° South 112 129 4,100  Level Orlando TRACON
07:32PM 28.3000 -80.7167 180° South 110 127 4,100 -60 Level Orlando TRACON
07:33PM 28.2667 -80.7000 156° South 112 129 4,000 -60 Descending Orlando TRACON
07:34PM 28.2333 -80.6833 156° South 110 127 4,000  Level Orlando TRACON
07:35PM 28.2000 -80.6667 156° South 114 131 4,000  Level Orlando TRACON
07:36PM 28.1833 -80.6667 180° South 105 121 4,100  Climbing Orlando TRACON
07:37PM 28.1500 -80.6500 156° South 114 131 4,100  Level Orlando TRACON
07:38PM 28.1167 -80.6333 156° South 113 130 4,100  Level Orlando TRACON
07:39PM 28.1000 -80.6333 180° South 117 135 4,100  Level Orlando TRACON
07:40PM 28.0675 -80.6239 166° South 109 125 4,100 -60 Level Miami Center
07:41PM 28.0428 -80.6161 164° South 114 131 4,000 -60 Descending Miami Center
07:42PM 28.0158 -80.6081 165° South 114 131 4,000  Level Miami Center
07:43PM 27.9767 -80.5925 161° South 109 125 4,000  Level Miami Center
07:44PM 27.9475 -80.5847 167° South 104 120 4,100  Climbing Miami Center
07:45PM 27.9186 -80.5789 170° South 104 120 4,100 -120 Level Miami Center
07:46PM 27.8892 -80.5803 182° South 109 125 3,900 -360 Descending Miami Center
07:47PM 27.8558 -80.5792 178° South 115 132 3,400 -420 Descending Miami Center
07:48PM 27.8161 -80.5850 187° South 120 138 3,000 -240 Descending Miami Center
07:49PM 27.7889 -80.5889 187° South 120 138 3,000 -240 Level Miami Center
07:50PM 27.7636 -80.5928 188° South 109 125 2,600 -480 Descending Miami Center
07:51PM 27.7342 -80.6011 194° South 104 120 2,100 -300 Descending Miami Center
07:52PM 27.7158 -80.5842 141° Southeast 99 114 2,000 -300 Descending Miami Center
07:53PM 27.7039 -80.5625 122° Southeast 88 101 1,600 -360 Descending Miami Center
07:54PM 27.6961 -80.5414 113° Southeast 81 93 1,300 -180 Descending Miami Center
07:55PM 27.6883 -80.5200 112° Southeast 81 93 1,300  Level Miami Center
07:56PM 27.6767 -80.4892 113° Southeast 81 93 1,300 -300 Level Miami Center
07:57PM 27.6667 -80.4653 115° Southeast 81 93 700  Descending Miami Center
07:59PM 27.6533 -80.4228 109° East 76 87 1,300 420 Climbing Miami Center
08:00PM 27.6453 -80.4036 115° Southeast 71 82 1,900 540 Climbing Miami Center
08:01PM 27.6394 -80.3847 109° East 71 82 2,400 540 Climbing Miami Center
08:02PM 27.6358 -80.3589 99° East 71 82 3,000 300 Climbing Miami Center
08:03PM 27.6428 -80.3356 71° East 71 82 3,000  Level Miami Center
08:04PM 27.6483 -80.3686 281° West 76 87 3,100  Climbing Miami Center
08:05PM 27.6456 -80.3967 264° West 94 108 3,000 -60 Descending Miami Center
08:06PM 27.6425 -80.4342 265° West 111 128 3,000  Level Miami Center
08:07PM 27.6394 -80.4739 265° West 116 133 3,100  Climbing Miami Center
08:08PM 27.6364 -80.5089 264° West 121 139 3,100  Level Miami Center
08:09PM 27.6272 -80.5414 252° West 121 139 3,100  Level Miami Center
08:10PM 27.6078 -80.5642 226° Southwest 113 130 3,100 -60 Level Miami Center
08:11PM 27.5822 -80.5914 223° Southwest 113 130 3,000  Descending Miami Center
08:12PM 27.5528 -80.5928 182° South 106 122 3,100 -300 Climbing Miami Center
08:13PM 27.5256 -80.5944 183° South 106 122 2,500 -600 Descending Miami Center
08:14PM 27.5069 -80.5889 165° South 88 101 2,000 -300 Descending Miami Center
08:15PM 27.5033 -80.5725 104° East 50 58 1,900 -120 Descending Miami Center
08:16PM 27.4997 -80.5444 98° East 77 89 1,800  Descending Miami Center
08:17PM 27.4983 -80.5161 93° East 95 109 1,900  Climbing Miami Center
08:18PM 27.4972 -80.4833 92° East 95 109 1,900 -300 Level Miami Center
08:19PM 27.4978 -80.4622 88° East 95 109 1,400 -600 Descending Miami Center
08:20PM 27.4964 -80.4342 93° East 84 97 800 -540 Descending Miami Center
08:21PM 27.4972 -80.3992 88° East 92 106 400 -300 Descending Miami Center
08:22PM 27.4956 -80.3756 95° East 86 99 200 -180 Descending Miami Center